MMMD Airport Information

Runway Information
Runway 10 Length 10499 ft width 151 ft
Elevation 38 ft Threshold 984 ft Heading 105
Runway 28 Length 10499 ft Width 151 ft
Elevation 38 ft Threshold 0 ft Heading 285
Runway 18 Length 7546 ft width 151 ft
Elevation 38 ft Threshold 0 ft Heading 181
Runway 36 Length 7546 ft Width 151 ft
Elevation 38 ft Threshold 0 ft Heading 1
Airport Frequencies
Type APP Name MERIDA APP Frequency 121.2 MHZ
Type ATIS Name ATIS Frequency 127.9 MHZ
Type INFO Name MERIDA INF Frequency 126.9 MHZ
Type TWR Name MERIDA TWR Frequency 118.3 MHZ
Airport Navaids
Type VOR-DME Name Merida Frequency 117700 KHZ
Type NDB Name Progreso Frequency 280 KHZ
Airport Weather Information & NOTAM
ADDS - METARS form results

(1617 UTC 26 September 2021)
Data provider http://aviationweather.gov/metar/data/
 
METAR text: MMMD 261540Z 11004KT 6SM BKN015 BKN200 30/25 A3005 RMK 8/108 HZY
Conditions at: MMMD (MERIDA INTL ARPT, MX) observed 1540 UTC 26 September 2021
Temperature: 30.0°C (86°F)
Dewpoint: 25.0°C (77°F) [RH = 75%]
Pressure (altimeter): 30.05 inches Hg (1017.7 mb)
Winds: from the ESE (110 degrees) at 5 MPH (4 knots; 2.1 m/s)
Visibility: 6 miles (10 km)
Ceiling: 1500 feet AGL
Clouds: broken clouds at 1500 feet AGL
broken clouds at 20000 feet AGL
Weather: no significant weather observed at this time